createdAt,value
2023-03-15T00:00:55.648Z,7.14
2023-03-15T00:03:24.430Z,5.99
2023-03-15T00:05:52.277Z,6.59
2023-03-15T00:08:19.047Z,6.35
2023-03-15T00:10:46.705Z,6.33
2023-03-15T00:13:14.697Z,6.64
2023-03-15T00:15:49.672Z,5.84
2023-03-15T00:18:17.774Z,6.87
2023-03-15T00:20:44.432Z,6.43
2023-03-15T00:23:10.941Z,6.69
2023-03-15T00:25:37.674Z,5.86
2023-03-15T00:28:04.348Z,6.66
2023-03-15T00:30:30.752Z,6.37
2023-03-15T00:32:57.248Z,6.33
2023-03-15T00:35:23.987Z,5.85
2023-03-15T00:37:54.743Z,6.35
2023-03-15T00:40:21.150Z,5.90
2023-03-15T00:42:50.412Z,5.58
2023-03-15T00:45:19.031Z,6.16
2023-03-15T00:47:45.678Z,5.71
2023-03-15T00:50:12.243Z,6.78
2023-03-15T00:52:38.929Z,6.45
2023-03-15T00:55:05.696Z,5.73
2023-03-15T00:57:35.273Z,6.03
2023-03-15T01:00:08.614Z,6.35
2023-03-15T01:02:37.225Z,6.43
2023-03-15T01:05:08.623Z,6.32
2023-03-15T01:07:37.857Z,6.45
2023-03-15T01:10:06.437Z,6.31
2023-03-15T01:12:34.044Z,6.41
2023-03-15T01:15:04.337Z,6.20
2023-03-15T01:17:30.789Z,4.93
2023-03-15T01:19:59.053Z,5.92
2023-03-15T01:22:26.344Z,4.99
2023-03-15T01:24:52.854Z,5.51
2023-03-15T01:27:19.406Z,5.30
2023-03-15T01:29:45.809Z,5.16
2023-03-15T01:32:15.089Z,4.76
2023-03-15T01:34:43.125Z,4.73
2023-03-15T01:37:10.465Z,4.84
2023-03-15T01:39:36.813Z,5.65
2023-03-15T01:42:03.337Z,5.37
2023-03-15T01:44:50.759Z,5.58
2023-03-15T01:47:17.336Z,5.59
2023-03-15T01:49:47.989Z,5.52
2023-03-15T01:52:20.251Z,5.43
2023-03-15T01:54:57.532Z,4.68
2023-03-15T01:57:30.701Z,4.69
2023-03-15T02:00:10.573Z,5.33
2023-03-15T02:02:46.474Z,4.76
2023-03-15T02:05:23.032Z,4.35
2023-03-15T02:07:51.004Z,5.52
2023-03-15T02:10:25.737Z,5.54
2023-03-15T02:12:56.261Z,5.35
2023-03-15T02:15:22.860Z,4.95
2023-03-15T02:17:50.534Z,5.44
2023-03-15T02:20:31.582Z,5.11
2023-03-15T02:23:01.232Z,5.64
2023-03-15T02:26:02.164Z,5.80
2023-03-15T02:28:29.670Z,4.99
2023-03-15T02:30:59.886Z,4.84
2023-03-15T02:33:33.654Z,4.34
2023-03-15T02:36:18.618Z,5.91
2023-03-15T02:38:45.148Z,6.15
2023-03-15T02:41:13.478Z,4.80
2023-03-15T02:43:42.057Z,5.55
2023-03-15T02:46:12.500Z,4.68
2023-03-15T02:48:41.108Z,5.05
2023-03-15T02:51:07.563Z,5.02
2023-03-15T02:53:34.211Z,5.01
2023-03-15T02:56:00.669Z,5.16
2023-03-15T02:58:27.214Z,5.54
2023-03-15T03:00:54.020Z,5.51
2023-03-15T03:03:21.110Z,6.18
2023-03-15T03:05:53.618Z,4.89
2023-03-15T03:08:20.174Z,4.96
2023-03-15T03:10:46.728Z,5.46
2023-03-15T03:13:13.260Z,4.95
2023-03-15T03:15:39.695Z,4.90
2023-03-15T03:18:09.327Z,5.32
2023-03-15T03:20:35.782Z,5.45
2023-03-15T03:23:06.194Z,5.44
2023-03-15T03:25:33.696Z,5.25
2023-03-15T03:28:03.983Z,5.05
2023-03-15T03:30:31.151Z,5.28
2023-03-15T03:32:57.797Z,5.83
2023-03-15T03:35:24.164Z,5.59
2023-03-15T03:37:53.749Z,4.62
2023-03-15T03:40:20.392Z,4.69
2023-03-15T03:42:46.812Z,4.99
2023-03-15T03:45:13.215Z,5.29
2023-03-15T03:47:39.687Z,5.06
2023-03-15T03:50:07.714Z,4.68
2023-03-15T03:52:34.164Z,4.71
2023-03-15T03:55:00.594Z,4.23
2023-03-15T03:57:27.083Z,4.76
2023-03-15T03:59:53.567Z,4.91
2023-03-15T04:02:20.196Z,4.96
2023-03-15T04:04:50.236Z,4.44
2023-03-15T04:07:19.170Z,4.86
2023-03-15T04:09:45.580Z,5.13
2023-03-15T04:12:12.301Z,4.72
2023-03-15T04:14:38.730Z,4.74
2023-03-15T04:17:05.238Z,4.48
2023-03-15T04:19:31.738Z,4.89
2023-03-15T04:21:58.094Z,4.79
2023-03-15T04:24:24.526Z,4.98
2023-03-15T04:26:50.931Z,4.68
2023-03-15T04:29:17.288Z,5.07
2023-03-15T04:31:43.772Z,4.28
2023-03-15T04:34:10.330Z,4.31
2023-03-15T04:36:39.206Z,5.12
2023-03-15T04:39:07.626Z,4.93
2023-03-15T04:41:34.849Z,5.28
2023-03-15T04:44:03.544Z,4.88
2023-03-15T04:46:31.780Z,4.63
2023-03-15T04:48:58.784Z,4.27
2023-03-15T04:51:25.238Z,4.29
2023-03-15T04:53:51.781Z,4.34
2023-03-15T04:56:20.958Z,4.62
2023-03-15T04:58:50.164Z,4.60
2023-03-15T05:01:16.972Z,4.56
2023-03-15T05:03:43.511Z,4.82
2023-03-15T05:06:10.158Z,5.03
2023-03-15T05:08:37.275Z,4.96
2023-03-15T05:11:18.648Z,5.45
2023-03-15T05:13:45.353Z,4.58
2023-03-15T05:16:12.310Z,5.19
2023-03-15T05:18:38.831Z,4.79
2023-03-15T05:21:06.134Z,5.23
2023-03-15T05:23:33.990Z,4.69
2023-03-15T05:26:03.764Z,4.75
2023-03-15T05:28:32.916Z,5.69
2023-03-15T05:31:00.627Z,4.71
2023-03-15T05:33:27.261Z,5.01
2023-03-15T05:35:56.984Z,5.03
2023-03-15T05:38:35.878Z,4.53
2023-03-15T05:41:02.321Z,5.25
2023-03-15T05:43:36.639Z,4.78
2023-03-15T05:46:05.931Z,5.02
2023-03-15T05:49:35.317Z,4.81
2023-03-15T05:52:01.826Z,4.94
2023-03-15T05:54:30.381Z,4.99
2023-03-15T05:57:08.385Z,5.72
2023-03-15T05:59:39.999Z,4.76
2023-03-15T06:02:09.235Z,5.01
2023-03-15T06:04:39.315Z,5.05
2023-03-15T06:07:20.758Z,5.07
2023-03-15T06:09:47.410Z,5.27
2023-03-15T06:12:15.160Z,4.98
2023-03-15T06:14:50.959Z,5.23
2023-03-15T06:17:23.675Z,5.29
2023-03-15T06:19:50.522Z,5.51
2023-03-15T06:22:22.962Z,5.38
2023-03-15T06:24:49.640Z,5.35
2023-03-15T06:27:22.324Z,5.07
2023-03-15T06:29:53.064Z,5.27
2023-03-15T06:32:22.640Z,5.85
2023-03-15T06:34:52.571Z,5.52
2023-03-15T06:37:28.981Z,5.98
2023-03-15T06:40:03.161Z,5.69
2023-03-15T06:42:29.732Z,5.24
2023-03-15T06:44:56.354Z,6.09
2023-03-15T06:47:22.999Z,5.69
2023-03-15T06:49:51.759Z,5.70
2023-03-15T06:52:18.913Z,5.73
2023-03-15T06:54:45.491Z,5.90
2023-03-15T06:57:14.814Z,5.63
2023-03-15T06:59:59.738Z,6.08
2023-03-15T07:02:26.927Z,6.36
2023-03-15T07:04:53.570Z,6.32
2023-03-15T07:07:20.107Z,6.18
2023-03-15T07:09:46.720Z,5.94
2023-03-15T07:12:13.471Z,6.49
2023-03-15T07:14:39.836Z,6.27
2023-03-15T07:17:06.349Z,5.78
2023-03-15T07:19:32.716Z,6.34
2023-03-15T07:22:03.123Z,6.21
2023-03-15T07:24:30.552Z,5.53
2023-03-15T07:26:57.125Z,6.47
2023-03-15T07:29:24.645Z,5.62
2023-03-15T07:31:51.932Z,6.19
2023-03-15T07:34:19.188Z,6.57
2023-03-15T07:36:45.656Z,6.54
2023-03-15T07:39:12.112Z,5.74
2023-03-15T07:41:38.739Z,5.87
2023-03-15T07:44:05.839Z,6.86
2023-03-15T07:46:40.159Z,6.12
2023-03-15T07:49:06.748Z,6.38
2023-03-15T07:51:33.264Z,6.72
2023-03-15T07:53:59.806Z,6.20
2023-03-15T07:56:26.211Z,6.20
2023-03-15T07:58:52.619Z,6.70
2023-03-15T08:01:19.096Z,6.25
2023-03-15T08:03:45.504Z,6.53
2023-03-15T08:06:11.892Z,6.47
2023-03-15T08:08:38.353Z,7.21
2023-03-15T08:11:05.966Z,7.01
2023-03-15T08:13:32.623Z,6.90
2023-03-15T08:15:59.525Z,7.47
2023-03-15T08:18:31.634Z,6.53
2023-03-15T08:20:59.123Z,7.20
2023-03-15T08:23:25.733Z,6.48
2023-03-15T08:25:52.100Z,7.53
2023-03-15T08:28:18.576Z,7.68
2023-03-15T08:30:44.945Z,7.18
2023-03-15T08:33:12.455Z,7.96
2023-03-15T08:35:39.146Z,7.95
2023-03-15T08:38:05.624Z,7.46
2023-03-15T08:40:34.331Z,7.92
2023-03-15T08:43:00.720Z,7.83
2023-03-15T08:45:27.640Z,8.12
2023-03-15T08:47:58.143Z,7.64
2023-03-15T08:50:25.679Z,8.14
2023-03-15T08:52:52.386Z,8.05
2023-03-15T08:55:19.324Z,7.88
2023-03-15T08:57:46.476Z,8.27
2023-03-15T09:00:23.274Z,7.96
2023-03-15T09:02:51.943Z,8.52
2023-03-15T09:05:20.628Z,7.91
2023-03-15T09:07:48.213Z,7.98
2023-03-15T09:10:16.771Z,8.88
2023-03-15T09:12:46.032Z,8.44
2023-03-15T09:15:13.170Z,9.07
2023-03-15T09:17:40.574Z,8.50
2023-03-15T09:20:14.809Z,8.42
2023-03-15T09:22:41.608Z,9.14
2023-03-15T09:25:09.583Z,8.45
2023-03-15T09:27:36.838Z,8.08
2023-03-15T09:30:03.953Z,8.75
2023-03-15T09:32:36.202Z,9.04
2023-03-15T09:35:11.350Z,8.52
2023-03-15T09:37:37.841Z,9.09
2023-03-15T09:40:05.058Z,9.86
2023-03-15T09:42:59.555Z,9.44
2023-03-15T09:45:48.589Z,10.02
2023-03-15T09:48:26.121Z,9.95
2023-03-15T09:51:05.635Z,9.76
2023-03-15T09:54:09.020Z,9.66
2023-03-15T09:56:59.885Z,9.28
2023-03-15T09:59:34.194Z,8.02
2023-03-15T10:02:25.503Z,8.51
2023-03-15T10:04:58.689Z,8.39
2023-03-15T10:07:26.207Z,8.71
2023-03-15T10:10:03.949Z,8.01
2023-03-15T10:12:41.346Z,9.14
2023-03-15T10:15:26.243Z,9.54
2023-03-15T10:17:55.755Z,10.13
2023-03-15T10:20:26.441Z,10.28
2023-03-15T10:23:03.235Z,10.54
2023-03-15T10:25:31.234Z,9.84
2023-03-15T10:28:08.342Z,10.33
2023-03-15T10:30:37.569Z,10.24
2023-03-15T10:33:23.740Z,9.62
2023-03-15T10:35:52.456Z,10.16
2023-03-15T10:38:24.120Z,9.70
2023-03-15T10:40:57.209Z,10.87
2023-03-15T10:43:23.608Z,11.02
2023-03-15T10:46:10.150Z,10.89
2023-03-15T10:48:51.891Z,10.80
2023-03-15T10:51:25.229Z,13.71
2023-03-15T10:54:13.262Z,16.28
2023-03-15T10:56:50.119Z,16.86
2023-03-15T10:59:20.066Z,18.25
2023-03-15T11:01:48.643Z,19.19
2023-03-15T11:04:33.109Z,18.98
2023-03-15T11:07:07.705Z,17.93
2023-03-15T11:09:45.539Z,17.65
2023-03-15T11:12:26.504Z,15.04
2023-03-15T11:15:07.635Z,13.95
2023-03-15T11:17:46.969Z,13.09
2023-03-15T11:20:26.369Z,15.23
2023-03-15T11:22:54.505Z,14.76
2023-03-15T11:25:25.250Z,14.80
2023-03-15T11:27:53.591Z,14.48
2023-03-15T11:30:28.449Z,14.25
2023-03-15T11:32:55.535Z,15.09
2023-03-15T11:35:40.965Z,15.61
2023-03-15T11:38:25.896Z,15.25
2023-03-15T11:40:58.678Z,15.81
2023-03-15T11:43:31.259Z,16.37
2023-03-15T11:46:05.983Z,16.60
2023-03-15T11:48:47.193Z,17.83
2023-03-15T11:51:14.270Z,17.34
2023-03-15T11:53:52.902Z,16.95
2023-03-15T11:56:58.086Z,15.55
2023-03-15T11:59:30.490Z,14.95
2023-03-15T12:02:16.306Z,14.37
2023-03-15T12:04:45.708Z,13.69
2023-03-15T12:07:15.118Z,14.59
2023-03-15T12:10:18.268Z,15.81
2023-03-15T12:12:47.346Z,16.49
2023-03-15T12:15:22.430Z,14.63
2023-03-15T12:18:02.068Z,13.79
2023-03-15T12:20:48.684Z,13.27
2023-03-15T12:23:32.850Z,13.48
2023-03-15T12:26:06.568Z,15.21
2023-03-15T12:28:41.949Z,16.03
2023-03-15T12:31:14.700Z,15.22
2023-03-15T12:33:53.986Z,15.26
2023-03-15T12:36:32.923Z,14.20
2023-03-15T12:39:04.327Z,14.20
2023-03-15T12:41:37.508Z,15.22
2023-03-15T12:44:36.009Z,16.42
2023-03-15T12:47:04.456Z,15.71
2023-03-15T12:49:38.655Z,16.09
2023-03-15T12:52:11.211Z,16.37
2023-03-15T12:54:55.070Z,16.51
2023-03-15T12:57:24.762Z,16.97
2023-03-15T12:59:55.551Z,16.40
2023-03-15T13:02:42.852Z,18.01
2023-03-15T13:05:09.885Z,17.87
2023-03-15T13:08:18.115Z,18.15
2023-03-15T13:11:11.152Z,18.85
2023-03-15T13:14:08.270Z,18.33
2023-03-15T13:16:56.547Z,17.68
2023-03-15T13:19:27.397Z,18.05
2023-03-15T13:22:07.588Z,18.22
2023-03-15T13:24:36.730Z,17.52
2023-03-15T13:27:35.812Z,17.33
2023-03-15T13:30:29.671Z,16.96
2023-03-15T13:33:10.975Z,18.26
2023-03-15T13:35:53.372Z,17.70
2023-03-15T13:38:26.291Z,18.11
2023-03-15T13:40:54.199Z,17.53
2023-03-15T13:43:24.954Z,17.38
2023-03-15T13:45:53.666Z,17.33
2023-03-15T13:48:20.113Z,17.82
2023-03-15T13:50:50.457Z,17.69
2023-03-15T13:53:39.547Z,16.75
2023-03-15T13:56:17.986Z,16.67
2023-03-15T13:58:45.035Z,16.28
2023-03-15T14:01:12.989Z,15.59
2023-03-15T14:03:43.661Z,15.99
2023-03-15T14:06:20.646Z,15.25
2023-03-15T14:08:48.568Z,14.82
2023-03-15T14:11:25.401Z,15.87
2023-03-15T14:13:59.273Z,15.84
2023-03-15T14:17:02.885Z,15.41
2023-03-15T14:19:36.649Z,15.87
2023-03-15T14:22:16.075Z,15.41
2023-03-15T14:24:46.500Z,15.09
2023-03-15T14:27:22.383Z,15.15
2023-03-15T14:29:51.385Z,14.35
2023-03-15T14:32:23.703Z,15.06
2023-03-15T14:34:50.074Z,14.95
2023-03-15T14:37:35.629Z,14.87
2023-03-15T14:40:16.541Z,14.76
2023-03-15T14:42:44.118Z,15.25
2023-03-15T14:45:10.982Z,15.09
2023-03-15T14:47:55.115Z,15.37
2023-03-15T14:50:24.654Z,15.18
2023-03-15T14:52:51.338Z,15.72
2023-03-15T14:55:29.384Z,15.19
2023-03-15T14:57:55.860Z,15.22
2023-03-15T15:00:22.542Z,15.20
2023-03-15T15:02:53.368Z,15.64
2023-03-15T15:05:32.027Z,15.83
2023-03-15T15:08:22.110Z,15.73
2023-03-15T15:10:50.407Z,15.66
2023-03-15T15:13:23.167Z,16.42
2023-03-15T15:15:55.726Z,16.70
2023-03-15T15:18:25.069Z,16.15
2023-03-15T15:20:55.237Z,15.55
2023-03-15T15:23:30.528Z,14.97
2023-03-15T15:26:00.215Z,14.97
2023-03-15T15:28:35.292Z,14.73
2023-03-15T15:31:04.028Z,14.45
2023-03-15T15:33:32.632Z,14.45
2023-03-15T15:35:59.144Z,14.20
2023-03-15T15:38:38.155Z,14.37
2023-03-15T15:41:05.115Z,14.72
2023-03-15T15:43:33.572Z,14.98
2023-03-15T15:46:00.251Z,15.64
2023-03-15T15:48:26.797Z,15.31
2023-03-15T15:50:53.158Z,14.52
2023-03-15T15:53:19.557Z,15.28
2023-03-15T15:55:46.363Z,14.86
2023-03-15T15:58:14.033Z,15.05
2023-03-15T16:00:40.589Z,14.91
2023-03-15T16:03:16.119Z,14.94
2023-03-15T16:05:43.544Z,15.16
2023-03-15T16:08:20.945Z,15.52
2023-03-15T16:10:47.301Z,15.42
2023-03-15T16:13:13.712Z,14.69
2023-03-15T16:15:40.174Z,15.17
2023-03-15T16:18:11.017Z,15.17
2023-03-15T16:20:39.360Z,14.14
2023-03-15T16:23:06.299Z,14.22
2023-03-15T16:25:36.132Z,14.90
2023-03-15T16:28:04.441Z,14.18
2023-03-15T16:30:32.382Z,14.72
2023-03-15T16:32:59.127Z,14.94
2023-03-15T16:35:35.848Z,14.10
2023-03-15T16:38:06.099Z,14.25
2023-03-15T16:40:34.495Z,14.68
2023-03-15T16:43:01.268Z,13.92
2023-03-15T16:45:27.900Z,14.57
2023-03-15T16:47:56.243Z,14.15
2023-03-15T16:50:24.113Z,14.33
2023-03-15T16:52:54.663Z,14.28
2023-03-15T16:55:27.025Z,13.88
2023-03-15T16:57:53.547Z,13.47
2023-03-15T17:00:20.724Z,13.88
2023-03-15T17:02:54.785Z,13.30
2023-03-15T17:05:21.702Z,13.93
2023-03-15T17:07:50.109Z,13.47
2023-03-15T17:10:23.067Z,13.47
2023-03-15T17:12:51.300Z,12.85
2023-03-15T17:15:20.357Z,13.56
2023-03-15T17:17:48.322Z,13.61
2023-03-15T17:20:21.427Z,13.31
2023-03-15T17:22:52.766Z,13.34
2023-03-15T17:25:19.585Z,13.17
2023-03-15T17:27:47.475Z,13.21
2023-03-15T17:30:28.928Z,13.27
2023-03-15T17:32:55.720Z,12.95
2023-03-15T17:35:26.770Z,13.07
2023-03-15T17:37:53.495Z,12.63
2023-03-15T17:40:24.446Z,12.50
2023-03-15T17:42:51.993Z,11.99
2023-03-15T17:45:24.191Z,12.68
2023-03-15T17:47:51.885Z,13.12
2023-03-15T17:50:18.964Z,12.55
2023-03-15T17:52:48.093Z,13.12
2023-03-15T17:55:19.901Z,12.93
2023-03-15T17:57:54.645Z,12.91
2023-03-15T18:00:23.553Z,12.87
2023-03-15T18:02:58.819Z,13.02
2023-03-15T18:05:27.059Z,12.70
2023-03-15T18:07:59.125Z,12.66
2023-03-15T18:10:33.483Z,12.66
2023-03-15T18:12:59.953Z,11.66
2023-03-15T18:15:26.349Z,12.83
2023-03-15T18:17:52.764Z,12.24
2023-03-15T18:20:22.129Z,12.73
2023-03-15T18:22:48.909Z,12.58
2023-03-15T18:25:20.578Z,12.74
2023-03-15T18:27:47.727Z,12.70
2023-03-15T18:30:18.192Z,11.96
2023-03-15T18:32:44.984Z,12.62
2023-03-15T18:35:21.104Z,12.81
2023-03-15T18:37:47.619Z,12.24
2023-03-15T18:40:17.183Z,12.62
2023-03-15T18:42:44.203Z,12.57
2023-03-15T18:45:20.738Z,12.41
2023-03-15T18:47:47.450Z,12.39
2023-03-15T18:50:15.250Z,12.59
2023-03-15T18:52:41.798Z,12.34
2023-03-15T18:55:10.884Z,11.57
2023-03-15T18:57:37.716Z,12.41
2023-03-15T19:00:13.438Z,12.36
2023-03-15T19:02:45.585Z,12.55
2023-03-15T19:05:13.486Z,12.47
2023-03-15T19:07:40.395Z,12.46
2023-03-15T19:10:10.434Z,12.21
2023-03-15T19:12:37.382Z,12.27
2023-03-15T19:15:05.881Z,12.16
2023-03-15T19:17:32.789Z,11.42
2023-03-15T19:19:59.246Z,11.32
2023-03-15T19:22:28.981Z,11.74
2023-03-15T19:24:55.367Z,12.10
2023-03-15T19:27:21.724Z,12.11
2023-03-15T19:29:48.221Z,11.50
2023-03-15T19:32:14.618Z,11.72
2023-03-15T19:34:41.344Z,12.18
2023-03-15T19:37:08.139Z,12.01
2023-03-15T19:39:34.568Z,11.49
2023-03-15T19:42:00.966Z,11.37
2023-03-15T19:44:27.965Z,11.49
2023-03-15T19:46:54.384Z,11.19
2023-03-15T19:49:20.856Z,12.05
2023-03-15T19:51:47.184Z,11.99
2023-03-15T19:54:13.531Z,12.07
2023-03-15T19:56:39.980Z,11.69
2023-03-15T19:59:06.393Z,11.85
2023-03-15T20:01:33.108Z,11.86
2023-03-15T20:04:00.029Z,11.94
2023-03-15T20:06:26.402Z,11.60
2023-03-15T20:08:53.115Z,11.39
2023-03-15T20:11:25.113Z,11.81
2023-03-15T20:13:52.689Z,11.20
2023-03-15T20:16:20.936Z,11.57
2023-03-15T20:18:48.711Z,11.47
2023-03-15T20:21:15.081Z,11.31
2023-03-15T20:23:42.441Z,10.69
2023-03-15T20:26:11.322Z,11.51
2023-03-15T20:28:41.828Z,11.54
2023-03-15T20:31:10.120Z,10.74
2023-03-15T20:33:36.575Z,11.10
2023-03-15T20:36:03.735Z,10.53
2023-03-15T20:38:30.484Z,10.95
2023-03-15T20:40:57.052Z,11.29
2023-03-15T20:43:23.697Z,10.93
2023-03-15T20:45:54.752Z,11.46
2023-03-15T20:48:23.456Z,11.49
2023-03-15T20:50:49.925Z,11.21
2023-03-15T20:53:16.377Z,11.23
2023-03-15T20:55:43.574Z,10.10
2023-03-15T20:58:11.092Z,10.43
2023-03-15T21:00:40.805Z,11.25
2023-03-15T21:03:10.629Z,11.08
2023-03-15T21:05:38.681Z,10.03
2023-03-15T21:08:08.394Z,11.09
2023-03-15T21:10:35.635Z,11.10
2023-03-15T21:13:09.491Z,10.84
2023-03-15T21:15:45.714Z,11.10
2023-03-15T21:18:13.509Z,10.93
2023-03-15T21:20:40.868Z,10.82
2023-03-15T21:23:07.393Z,10.85
2023-03-15T21:25:33.783Z,10.75
2023-03-15T21:28:00.391Z,10.79
2023-03-15T21:30:26.995Z,9.95
2023-03-15T21:32:53.429Z,9.65
2023-03-15T21:35:21.880Z,10.81
2023-03-15T21:37:48.406Z,10.30
2023-03-15T21:40:14.996Z,9.92
2023-03-15T21:42:43.384Z,10.82
2023-03-15T21:45:11.929Z,9.96
2023-03-15T21:47:38.375Z,10.54
2023-03-15T21:50:06.889Z,9.88
2023-03-15T21:52:33.777Z,10.22
2023-03-15T21:55:01.069Z,9.25
2023-03-15T21:57:27.661Z,10.48
2023-03-15T21:59:54.088Z,9.53
2023-03-15T22:02:20.455Z,9.59
2023-03-15T22:04:46.972Z,9.43
2023-03-15T22:07:13.364Z,10.15
2023-03-15T22:09:41.606Z,10.59
2023-03-15T22:12:08.811Z,10.39
2023-03-15T22:14:35.385Z,9.52
2023-03-15T22:17:04.779Z,10.21
2023-03-15T22:19:31.968Z,10.22
2023-03-15T22:21:58.700Z,10.01
2023-03-15T22:24:25.305Z,10.12
2023-03-15T22:26:52.977Z,10.11
2023-03-15T22:29:19.472Z,9.96
2023-03-15T22:31:45.819Z,9.83
2023-03-15T22:34:12.234Z,9.10
2023-03-15T22:36:38.700Z,9.32
2023-03-15T22:39:09.074Z,10.29
2023-03-15T22:41:35.853Z,10.31
2023-03-15T22:44:02.309Z,10.21
2023-03-15T22:46:34.782Z,9.18
2023-03-15T22:49:02.240Z,8.70
2023-03-15T22:51:28.818Z,8.88
2023-03-15T22:53:55.269Z,9.39
2023-03-15T22:56:21.813Z,9.84
2023-03-15T22:58:48.640Z,9.74
2023-03-15T23:01:15.131Z,8.87
2023-03-15T23:03:41.566Z,9.82
2023-03-15T23:06:07.946Z,9.75
2023-03-15T23:08:34.296Z,9.61
2023-03-15T23:11:00.760Z,8.97
2023-03-15T23:13:27.205Z,9.50
2023-03-15T23:15:54.247Z,9.42
2023-03-15T23:18:21.999Z,9.38
2023-03-15T23:20:48.396Z,8.46
2023-03-15T23:23:14.785Z,9.41
2023-03-15T23:25:41.331Z,9.06
2023-03-15T23:28:07.810Z,9.41
2023-03-15T23:30:36.195Z,8.66
2023-03-15T23:33:03.697Z,8.73
2023-03-15T23:35:31.747Z,8.33
2023-03-15T23:37:58.320Z,9.38
2023-03-15T23:40:25.806Z,9.25
2023-03-15T23:42:58.804Z,9.19
2023-03-15T23:45:27.625Z,8.24
2023-03-15T23:47:54.082Z,8.14
2023-03-15T23:50:20.542Z,9.14
2023-03-15T23:52:47.026Z,9.26
2023-03-15T23:55:13.467Z,9.13
2023-03-15T23:57:40.340Z,9.01
